Terminal Aerodrome Forecast
Issued by NWS

Home | Current Version | Previous Version | Text Only | Print | Product List | Glossary On
Versions: 1 2 3 4 5 6 7 8 9 10 11 12 13 14 15
976
FTUS41 KCAR 261120
TAFBHB
TAF
KBHB 261120Z 2612/2712 21003KT 1/4SM FG VV002
      TEMPO 2612/2613 P6SM NSW BKN002
     FM261300 29006KT P6SM BKN050
     FM261800 31008KT P6SM VCSH BKN050
     FM262300 31008KT P6SM SCT050 BKN090
     FM270600 VRB03KT P6SM BCFG SCT250=

USA.gov is the U.S. government's official web portal to all federal, state and local government web resources and services.